createdAt,value
2022-10-11T00:02:16.376Z,1.70
2022-10-11T00:05:03.240Z,1.80
2022-10-11T00:07:49.551Z,1.63
2022-10-11T00:10:36.057Z,1.90
2022-10-11T00:13:24.177Z,2.17
2022-10-11T00:16:12.439Z,2.17
2022-10-11T00:18:59.113Z,2.03
2022-10-11T00:21:45.841Z,1.80
2022-10-11T00:24:32.682Z,2.20
2022-10-11T00:27:19.271Z,1.90
2022-10-11T00:30:08.459Z,2.47
2022-10-11T00:32:55.380Z,1.93
2022-10-11T00:35:42.367Z,2.00
2022-10-11T00:38:31.605Z,1.60
2022-10-11T00:41:19.034Z,1.87
2022-10-11T00:44:17.719Z,1.80
2022-10-11T00:47:10.351Z,2.20
2022-10-11T00:50:00.277Z,2.07
2022-10-11T00:52:53.232Z,1.83
2022-10-11T00:55:45.308Z,2.37
2022-10-11T00:58:34.531Z,2.07
2022-10-11T01:01:21.308Z,2.10
2022-10-11T01:04:09.380Z,2.00
2022-10-11T01:06:56.303Z,1.53
2022-10-11T01:09:42.707Z,1.93
2022-10-11T01:12:31.717Z,1.80
2022-10-11T01:15:24.310Z,2.47
2022-10-11T03:21:11.174Z,2.57
2022-10-11T03:23:58.159Z,2.33
2022-10-11T03:26:44.940Z,2.10
2022-10-11T03:29:31.360Z,2.03
2022-10-11T03:32:17.781Z,2.60
2022-10-11T03:35:04.621Z,2.53
2022-10-11T03:37:52.713Z,2.90
2022-10-11T03:40:39.589Z,2.80
2022-10-11T03:43:26.237Z,3.17
2022-10-11T03:46:12.616Z,6.77
2022-10-11T03:48:59.055Z,6.40
2022-10-11T03:51:45.469Z,6.83
2022-10-11T03:54:33.255Z,4.90
2022-10-11T03:57:20.196Z,7.03
2022-10-11T04:00:09.115Z,7.70
2022-10-11T04:02:55.537Z,4.40
2022-10-11T04:05:42.102Z,3.77
2022-10-11T04:08:28.623Z,3.10
2022-10-11T04:11:16.322Z,2.53
2022-10-11T04:14:03.425Z,3.13
2022-10-11T04:16:50.239Z,3.03
2022-10-11T04:19:37.190Z,3.87
2022-10-11T04:22:23.851Z,2.73
2022-10-11T04:25:11.303Z,2.93
2022-10-11T04:27:59.367Z,3.40
2022-10-11T04:30:46.082Z,3.50
2022-10-11T04:33:32.663Z,2.83
2022-10-11T04:36:19.156Z,3.13
2022-10-11T04:39:06.192Z,3.60
2022-10-11T04:41:52.698Z,4.17
2022-10-11T04:44:40.467Z,4.30
2022-10-11T04:47:27.227Z,3.63
2022-10-11T04:50:13.924Z,3.83
2022-10-11T04:53:00.613Z,3.00
2022-10-11T04:55:57.749Z,3.30
2022-10-11T04:58:44.219Z,3.90
2022-10-11T05:01:32.182Z,3.50
2022-10-11T05:04:18.933Z,3.57
2022-10-11T05:07:06.604Z,3.20
2022-10-11T05:09:53.048Z,3.50
2022-10-11T05:12:39.532Z,3.13
2022-10-11T05:15:26.230Z,3.60
2022-10-11T05:18:14.075Z,3.47
2022-10-11T05:21:02.038Z,3.37
2022-10-11T05:23:49.825Z,3.43
2022-10-11T05:26:36.681Z,2.90
2022-10-11T05:29:23.032Z,3.03
2022-10-11T05:32:09.515Z,2.83
2022-10-11T05:34:57.351Z,3.53
2022-10-11T05:37:44.106Z,3.27
2022-10-11T05:40:30.513Z,2.97
2022-10-11T05:43:17.083Z,3.23
2022-10-11T05:46:04.072Z,3.23
2022-10-11T05:48:50.843Z,3.67
2022-10-11T05:51:38.765Z,3.67
2022-10-11T05:54:25.320Z,3.40
2022-10-11T05:57:11.746Z,3.30
2022-10-11T05:59:58.256Z,3.83
2022-10-11T06:02:44.773Z,4.43
2022-10-11T06:05:31.221Z,4.53
2022-10-11T06:08:19.092Z,5.03
2022-10-11T06:11:12.253Z,4.13
2022-10-11T06:13:59.480Z,5.17
2022-10-11T06:16:45.924Z,3.83
2022-10-11T06:19:32.433Z,3.77
2022-10-11T06:22:19.620Z,3.70
2022-10-11T06:25:08.752Z,4.37
2022-10-11T06:27:55.423Z,3.87
2022-10-11T06:30:42.099Z,3.70
2022-10-11T06:33:28.758Z,3.60
2022-10-11T06:36:16.830Z,3.80
2022-10-11T06:39:03.595Z,3.57
2022-10-11T06:41:51.504Z,4.10
2022-10-11T06:44:38.417Z,4.00
2022-10-11T06:47:25.060Z,4.03
2022-10-11T06:50:11.581Z,3.40
2022-10-11T06:52:57.944Z,4.80
2022-10-11T06:55:44.413Z,3.93
2022-10-11T06:58:32.515Z,4.67
2022-10-11T07:01:21.363Z,4.83
2022-10-11T07:04:08.420Z,4.80
2022-10-11T07:06:55.149Z,4.73
2022-10-11T07:09:41.529Z,4.30
2022-10-11T07:12:28.890Z,4.83
2022-10-11T07:15:17.004Z,4.50
2022-10-11T07:18:03.643Z,4.57
2022-10-11T07:20:50.294Z,4.57
2022-10-11T07:23:38.131Z,5.17
2022-10-11T07:26:24.750Z,4.23
2022-10-11T07:29:12.825Z,4.70
2022-10-11T07:32:00.603Z,5.03
2022-10-11T07:34:47.397Z,4.77
2022-10-11T07:37:35.156Z,4.37
2022-10-11T07:40:21.517Z,4.17
2022-10-11T07:43:08.238Z,4.27
2022-10-11T07:45:55.615Z,4.67
2022-10-11T07:48:43.925Z,4.80
2022-10-11T07:51:30.689Z,4.27
2022-10-11T07:54:17.097Z,4.23
2022-10-11T07:57:03.391Z,4.53
2022-10-11T07:59:50.450Z,4.60
2022-10-11T08:02:37.062Z,4.03
2022-10-11T08:05:24.912Z,3.80
2022-10-11T08:08:11.689Z,4.57
2022-10-11T08:10:58.474Z,3.30
2022-10-11T08:13:44.775Z,3.40
2022-10-11T08:16:31.190Z,3.33
2022-10-11T08:19:18.627Z,3.23
2022-10-11T08:22:06.715Z,3.63
2022-10-11T08:24:53.169Z,3.20
2022-10-11T08:27:39.645Z,2.77
2022-10-11T08:30:26.144Z,2.67
2022-10-11T08:33:12.578Z,3.30
2022-10-11T08:35:58.956Z,3.33
2022-10-11T08:38:47.120Z,3.30
2022-10-11T08:41:40.129Z,3.27
2022-10-11T08:44:58.707Z,3.20
2022-10-11T08:47:46.170Z,2.93
2022-10-11T08:50:32.992Z,3.37
2022-10-11T08:53:24.880Z,3.00
2022-10-11T08:56:14.631Z,3.27
2022-10-11T08:59:05.587Z,3.50
2022-10-11T09:01:59.824Z,2.57
2022-10-11T09:04:47.058Z,2.53
2022-10-11T09:07:45.310Z,2.23
2022-10-11T09:10:56.045Z,1.77
2022-10-11T09:14:05.415Z,2.30
2022-10-11T09:17:02.671Z,2.97
2022-10-11T09:20:20.081Z,2.30
2022-10-11T09:23:18.288Z,1.80
2022-10-11T09:26:07.986Z,2.37
2022-10-11T09:29:01.974Z,2.13
2022-10-11T09:31:53.132Z,2.13
2022-10-11T09:34:40.290Z,2.30
2022-10-11T09:37:32.761Z,1.60
2022-10-11T09:40:29.410Z,2.20
2022-10-11T09:43:16.000Z,2.10
2022-10-11T09:46:04.406Z,1.80
2022-10-11T09:48:54.747Z,2.03
2022-10-11T09:51:45.825Z,2.00
2022-10-11T09:54:40.612Z,2.50
2022-10-11T09:57:29.656Z,2.00
2022-10-11T10:00:22.933Z,1.73
2022-10-11T10:03:29.904Z,1.80
2022-10-11T10:06:23.227Z,2.07
2022-10-11T10:09:26.901Z,1.83
2022-10-11T10:12:14.775Z,1.57
2022-10-11T10:15:08.010Z,1.87
2022-10-11T10:17:54.908Z,2.00
2022-10-11T10:20:43.136Z,2.23
2022-10-11T10:23:31.958Z,2.13
2022-10-11T10:26:22.231Z,1.83
2022-10-11T10:29:18.583Z,2.13
2022-10-11T10:32:14.736Z,2.17
2022-10-11T10:35:13.381Z,1.40
2022-10-11T10:38:08.870Z,2.47
2022-10-11T10:40:58.192Z,2.17
2022-10-11T10:43:47.167Z,2.00
2022-10-11T10:46:55.803Z,1.47
2022-10-11T10:49:54.016Z,1.77
2022-10-11T10:52:49.950Z,2.03
2022-10-11T10:55:42.857Z,2.03
2022-10-11T10:58:57.611Z,1.63
2022-10-11T11:01:53.706Z,1.83
2022-10-11T11:04:40.624Z,1.50
2022-10-11T11:07:33.834Z,2.43
2022-10-11T11:10:24.034Z,2.33
2022-10-11T11:13:21.500Z,2.03
2022-10-11T11:16:14.786Z,2.23
2022-10-11T11:19:07.664Z,1.80
2022-10-11T11:22:00.432Z,2.17
2022-10-11T11:24:57.669Z,1.50
2022-10-11T11:27:55.028Z,1.80
2022-10-11T11:30:52.639Z,1.90
2022-10-11T11:33:51.375Z,1.90
2022-10-11T11:36:43.439Z,1.90
2022-10-11T11:39:35.572Z,1.63
2022-10-11T11:42:29.383Z,1.80
2022-10-11T11:45:20.303Z,1.70
2022-10-11T11:48:13.710Z,1.60
2022-10-11T11:51:07.171Z,1.50
2022-10-11T11:54:05.126Z,1.57
2022-10-11T11:57:00.351Z,1.60
2022-10-11T11:59:52.545Z,1.43
2022-10-11T12:02:47.567Z,1.83
2022-10-11T12:05:37.098Z,1.67
2022-10-11T12:08:28.935Z,2.00
2022-10-11T12:11:22.480Z,1.30
2022-10-11T12:14:27.417Z,2.30
2022-10-11T12:17:20.905Z,1.57
2022-10-11T12:20:15.601Z,1.77
2022-10-11T12:23:05.420Z,1.80
2022-10-11T12:26:40.174Z,2.17
2022-10-11T12:29:45.070Z,2.00
2022-10-11T12:32:53.625Z,1.87
2022-10-11T12:36:04.053Z,1.53
2022-10-11T12:39:27.689Z,1.87
2022-10-11T12:42:37.055Z,2.20
2022-10-11T12:45:35.051Z,2.13
2022-10-11T12:48:41.916Z,1.83
2022-10-11T12:51:37.183Z,1.40
2022-10-11T12:54:46.594Z,1.50
2022-10-11T12:58:19.879Z,1.80
2022-10-11T13:01:22.919Z,1.60
2022-10-11T13:04:12.431Z,1.80
2022-10-11T13:07:06.711Z,1.90
2022-10-11T13:09:55.733Z,1.47
2022-10-11T13:12:46.326Z,2.63
2022-10-11T13:15:35.502Z,1.50
2022-10-11T13:18:25.927Z,1.50
2022-10-11T13:21:23.132Z,2.37
2022-10-11T13:24:13.711Z,1.70
2022-10-11T13:27:00.591Z,2.00
2022-10-11T13:29:48.499Z,1.80
2022-10-11T13:32:37.942Z,1.67
2022-10-11T13:35:31.101Z,1.73
2022-10-11T13:38:23.219Z,1.90
2022-10-11T13:41:11.058Z,1.53
2022-10-11T13:43:59.330Z,1.60
2022-10-11T13:46:46.348Z,1.53
2022-10-11T13:49:40.042Z,1.90
2022-10-11T13:52:27.078Z,1.40
2022-10-11T13:55:25.959Z,1.80
2022-10-11T13:58:19.058Z,2.17
2022-10-11T14:01:07.981Z,1.47
2022-10-11T14:04:00.131Z,1.67
2022-10-11T14:06:52.940Z,2.30
2022-10-11T14:09:41.077Z,1.80
2022-10-11T14:12:35.423Z,1.97
2022-10-11T14:15:27.160Z,1.97
2022-10-11T14:18:39.574Z,1.60
2022-10-11T14:21:28.612Z,1.73
2022-10-11T14:24:17.854Z,1.73
2022-10-11T14:27:07.311Z,1.50
2022-10-11T14:30:20.285Z,1.93
2022-10-11T14:33:02.852Z,2.03
2022-10-11T14:35:49.775Z,2.07
2022-10-11T14:38:36.325Z,1.70
2022-10-11T14:41:24.154Z,2.13
2022-10-11T14:44:11.016Z,1.80
2022-10-11T14:46:57.816Z,1.53
2022-10-11T14:49:44.416Z,2.20
2022-10-11T14:52:31.236Z,2.03
2022-10-11T14:55:17.756Z,1.63
2022-10-11T14:58:06.239Z,1.40
2022-10-11T15:00:52.991Z,1.77
2022-10-11T15:03:39.664Z,1.50
2022-10-11T15:06:28.523Z,2.80
2022-10-11T15:09:16.245Z,2.37
2022-10-11T15:12:03.113Z,2.07
2022-10-11T15:14:51.040Z,1.83
2022-10-11T15:17:37.828Z,1.50
2022-10-11T15:20:27.485Z,1.97
2022-10-11T15:23:14.424Z,1.83
2022-10-11T15:26:01.154Z,1.77
2022-10-11T15:28:48.189Z,2.10
2022-10-11T15:31:36.134Z,1.90
2022-10-11T15:34:22.997Z,1.50
2022-10-11T15:37:09.396Z,1.43
2022-10-11T15:39:55.936Z,1.87
2022-10-11T15:42:42.683Z,1.90
2022-10-11T15:45:29.982Z,1.80
2022-10-11T15:48:19.731Z,2.20
2022-10-11T15:51:06.428Z,2.03
2022-10-11T15:53:53.328Z,1.87
2022-10-11T15:56:39.886Z,1.77
2022-10-11T15:59:26.780Z,2.10
2022-10-11T16:02:15.800Z,1.83
2022-10-11T16:05:03.349Z,2.20
2022-10-11T16:07:50.046Z,2.17
2022-10-11T16:10:37.117Z,1.80
2022-10-11T16:13:23.675Z,1.87
2022-10-11T16:16:12.431Z,1.90
2022-10-11T16:18:59.063Z,2.03
2022-10-11T16:21:46.971Z,2.13
2022-10-11T16:24:33.677Z,1.77
2022-10-11T16:27:20.416Z,1.50
2022-10-11T16:30:08.021Z,1.63
2022-10-11T16:32:54.733Z,1.40
2022-10-11T16:35:42.496Z,2.27
2022-10-11T16:38:30.336Z,1.83
2022-10-11T16:41:16.937Z,1.97
2022-10-11T16:44:03.496Z,2.00
2022-10-11T16:46:50.613Z,1.63
2022-10-11T16:49:38.416Z,1.87
2022-10-11T16:52:24.825Z,1.70
2022-10-11T16:55:12.652Z,2.40
2022-10-11T16:57:59.372Z,1.87
2022-10-11T17:00:45.931Z,1.90
2022-10-11T17:03:32.866Z,2.10
2022-10-11T17:06:19.719Z,1.87
2022-10-11T17:09:06.369Z,2.53
2022-10-11T17:11:54.506Z,2.10
2022-10-11T17:14:42.374Z,1.60
2022-10-11T17:17:29.671Z,1.60
2022-10-11T17:20:16.307Z,2.03
2022-10-11T17:23:02.909Z,1.73
2022-10-11T17:25:49.352Z,1.87
2022-10-11T17:28:37.784Z,2.23
2022-10-11T17:31:24.766Z,2.00
2022-10-11T17:34:13.713Z,1.37
2022-10-11T17:37:00.247Z,1.80
2022-10-11T17:39:46.732Z,1.80
2022-10-11T17:42:33.632Z,2.20
2022-10-11T17:45:21.400Z,1.57
2022-10-11T17:48:08.031Z,2.30
2022-10-11T17:50:54.966Z,1.80
2022-10-11T17:53:42.012Z,2.30
2022-10-11T17:56:32.542Z,2.17
2022-10-11T17:59:27.377Z,2.60
2022-10-11T18:02:15.646Z,2.23
2022-10-11T18:05:03.345Z,2.27
2022-10-11T18:07:53.542Z,1.80
2022-10-11T18:10:42.895Z,2.43
2022-10-11T18:13:33.676Z,1.93
2022-10-11T18:16:22.015Z,2.00
2022-10-11T18:19:13.379Z,1.50
2022-10-11T18:22:03.196Z,2.43
2022-10-11T18:24:53.320Z,2.23
2022-10-11T18:27:39.796Z,2.23
2022-10-11T18:30:26.520Z,2.30
2022-10-11T18:33:13.265Z,2.17
2022-10-11T18:36:03.000Z,2.07
2022-10-11T18:38:53.322Z,2.73
2022-10-11T18:41:42.111Z,5.53
2022-10-11T18:44:28.944Z,3.57
2022-10-11T18:47:15.337Z,5.47
2022-10-11T18:50:01.855Z,2.83
2022-10-11T18:52:50.519Z,3.33
2022-10-11T18:55:36.971Z,2.93
2022-10-11T18:58:23.205Z,2.53
2022-10-11T19:01:12.246Z,4.00
2022-10-11T19:04:00.942Z,3.20
2022-10-11T19:06:49.001Z,3.00
2022-10-11T19:09:38.082Z,2.87
2022-10-11T19:12:24.777Z,3.37
2022-10-11T19:15:11.555Z,2.67
2022-10-11T19:17:58.027Z,3.27
2022-10-11T19:20:44.480Z,8.87
2022-10-11T19:23:34.411Z,7.50
2022-10-11T19:26:24.281Z,5.83
2022-10-11T19:29:14.675Z,4.97
2022-10-11T19:32:03.078Z,4.13
2022-10-11T19:34:49.577Z,4.23
2022-10-11T19:37:36.101Z,3.90
2022-10-11T19:40:22.723Z,3.00
2022-10-11T19:43:10.894Z,3.50
2022-10-11T19:46:01.700Z,2.97
2022-10-11T19:48:49.733Z,2.83
2022-10-11T19:51:37.372Z,2.50
2022-10-11T19:54:23.756Z,3.43
2022-10-11T19:57:10.236Z,2.93
2022-10-11T19:59:58.254Z,3.90
2022-10-11T20:02:44.893Z,3.03
2022-10-11T20:05:31.613Z,3.20
2022-10-11T20:08:18.358Z,3.10
2022-10-11T20:11:07.087Z,3.37
2022-10-11T20:13:55.033Z,2.90
2022-10-11T20:16:43.115Z,3.93
2022-10-11T20:19:31.420Z,3.57
2022-10-11T20:22:18.452Z,3.37
2022-10-11T20:25:05.701Z,3.43
2022-10-11T20:27:52.199Z,3.40
2022-10-11T20:30:43.039Z,3.27
2022-10-11T20:33:33.073Z,3.53
2022-10-11T20:36:21.496Z,3.97
2022-10-11T20:39:08.064Z,3.40
2022-10-11T20:41:54.905Z,3.50
2022-10-11T20:44:42.904Z,3.80
2022-10-11T20:47:29.764Z,4.10
2022-10-11T20:50:22.848Z,3.53
2022-10-11T20:53:12.944Z,3.67
2022-10-11T20:56:02.823Z,4.33
2022-10-11T20:58:52.652Z,4.50
2022-10-11T21:01:41.264Z,4.40
2022-10-11T21:04:28.153Z,3.70
2022-10-11T21:07:15.985Z,3.60
2022-10-11T21:10:02.889Z,3.73
2022-10-11T21:12:49.370Z,4.00
2022-10-11T21:15:35.935Z,4.00
2022-10-11T21:18:23.030Z,4.10
2022-10-11T21:21:10.734Z,3.67
2022-10-11T21:24:00.583Z,4.77
2022-10-11T21:26:47.815Z,4.40
2022-10-11T21:29:34.263Z,3.90
2022-10-11T21:32:20.780Z,4.70
2022-10-11T21:35:07.635Z,4.37
2022-10-11T21:37:55.476Z,3.70
2022-10-11T21:40:43.626Z,4.23
2022-10-11T21:43:30.468Z,3.90
2022-10-11T21:46:19.283Z,4.33
2022-10-11T21:49:06.155Z,3.60
2022-10-11T21:51:52.754Z,3.73
2022-10-11T21:54:39.552Z,3.20
2022-10-11T21:57:27.826Z,3.27
2022-10-11T22:00:15.173Z,3.50
2022-10-11T22:03:01.436Z,3.13
2022-10-11T22:05:48.815Z,3.07
2022-10-11T22:08:35.293Z,3.03
2022-10-11T22:11:21.902Z,2.67
2022-10-11T22:14:09.961Z,3.10
2022-10-11T22:16:56.824Z,3.10
2022-10-11T22:19:43.547Z,2.70
2022-10-11T22:22:30.032Z,3.20
2022-10-11T22:25:16.669Z,2.93
2022-10-11T22:28:03.392Z,3.30
2022-10-11T22:30:51.232Z,3.27
2022-10-11T22:33:38.432Z,3.37
2022-10-11T22:36:26.037Z,3.53
2022-10-11T22:39:12.582Z,4.10
2022-10-11T22:41:59.109Z,3.80
2022-10-11T22:44:45.558Z,3.80
2022-10-11T22:47:33.632Z,3.40
2022-10-11T22:50:20.784Z,4.13
2022-10-11T22:53:08.147Z,3.67
2022-10-11T22:55:55.046Z,3.43
2022-10-11T22:58:41.902Z,4.00
2022-10-11T23:01:28.557Z,4.03
2022-10-11T23:04:17.637Z,3.33
2022-10-11T23:07:05.254Z,3.70
2022-10-11T23:09:52.192Z,3.60
2022-10-11T23:12:38.527Z,3.60
2022-10-11T23:15:25.340Z,3.57
2022-10-11T23:18:12.483Z,3.13
2022-10-11T23:21:02.677Z,3.67
2022-10-11T23:23:49.307Z,3.50
2022-10-11T23:26:35.969Z,4.17
2022-10-11T23:29:22.521Z,3.80
2022-10-11T23:32:09.016Z,3.40
2022-10-11T23:34:55.835Z,2.60
2022-10-11T23:37:43.773Z,3.50
2022-10-11T23:40:30.303Z,2.63
2022-10-11T23:43:17.635Z,2.70
2022-10-11T23:46:04.267Z,2.40
2022-10-11T23:48:50.669Z,3.00
2022-10-11T23:51:37.196Z,2.77
2022-10-11T23:54:25.124Z,2.70
2022-10-11T23:57:12.472Z,2.80
2022-10-11T23:59:58.956Z,2.93
